createdAt,value
2018-04-17T08:22:46.038Z,41.51
2018-04-17T08:23:46.012Z,41.62
2018-04-17T08:24:45.986Z,41.67
2018-04-17T08:25:45.961Z,41.76
2018-04-17T08:26:45.935Z,41.76
2018-04-17T08:27:45.908Z,41.78
2018-04-17T08:28:45.884Z,41.89
2018-04-17T08:29:45.857Z,41.94
2018-04-17T08:30:45.833Z,42.05
2018-04-17T08:31:45.816Z,42.17
2018-04-17T08:32:45.780Z,42.21
2018-04-17T08:33:45.755Z,42.20
2018-04-17T08:34:45.732Z,42.30
2018-04-17T08:35:45.713Z,42.36
2018-04-17T08:36:45.688Z,42.47
2018-04-17T08:37:45.653Z,42.50
2018-04-17T08:38:45.629Z,42.55
2018-04-17T08:39:45.603Z,42.64
2018-04-17T08:40:45.583Z,42.57
2018-04-17T08:41:45.597Z,42.64
2018-04-17T08:42:45.588Z,42.65
2018-04-17T08:43:45.514Z,42.61
2018-04-17T08:44:45.480Z,42.65
2018-04-17T08:45:45.454Z,42.71
2018-04-17T08:46:45.430Z,42.76
2018-04-17T08:47:45.409Z,42.91
2018-04-17T08:48:45.381Z,43.03
2018-04-17T08:49:45.356Z,43.07
2018-04-17T08:50:45.331Z,43.07
2018-04-17T08:51:45.307Z,43.08
2018-04-17T08:52:45.283Z,43.17
2018-04-17T08:53:45.258Z,43.37
2018-04-17T08:54:45.234Z,43.46
2018-04-17T08:55:45.211Z,43.61
2018-04-17T08:56:45.186Z,43.65
2018-04-17T08:57:45.165Z,43.75
2018-04-17T08:58:45.143Z,43.86
2018-04-17T08:59:45.115Z,44.00
2018-04-17T09:00:45.133Z,44.12
2018-04-17T09:01:45.070Z,44.10
2018-04-17T09:02:45.045Z,44.24
2018-04-17T09:03:45.020Z,44.31
2018-04-17T09:04:44.996Z,44.28
2018-04-17T09:05:44.980Z,44.34
2018-04-17T09:06:44.951Z,44.22
2018-04-17T09:07:44.927Z,44.37
2018-04-17T09:08:44.904Z,44.40
2018-04-17T09:09:44.882Z,44.46
2018-04-17T09:10:44.859Z,44.48
2018-04-17T09:11:44.893Z,44.46
2018-04-17T09:12:44.812Z,44.36
2018-04-17T09:13:44.789Z,44.21
2018-04-17T09:14:44.771Z,43.91
2018-04-17T09:15:44.744Z,43.72
2018-04-17T09:16:44.718Z,43.59
2018-04-17T09:17:44.695Z,43.42
2018-04-17T09:18:44.673Z,43.27
2018-04-17T09:19:44.648Z,43.07
2018-04-17T09:20:44.625Z,42.95
2018-04-17T09:21:44.602Z,42.93
2018-04-17T09:22:44.578Z,42.73
2018-04-17T09:23:44.554Z,42.71
2018-04-17T09:24:44.532Z,42.68
2018-04-17T09:25:44.506Z,42.52
2018-04-17T09:26:44.482Z,42.33
2018-04-17T09:27:44.461Z,42.33
2018-04-17T09:28:44.432Z,42.33
2018-04-17T09:29:44.410Z,42.27
2018-04-17T09:30:44.385Z,42.23
2018-04-17T09:31:44.360Z,42.25
2018-04-17T09:32:44.347Z,42.17
2018-04-17T09:33:44.312Z,42.21
2018-04-17T09:34:44.287Z,42.16
2018-04-17T09:35:44.262Z,42.12
2018-04-17T09:36:44.238Z,42.08
2018-04-17T09:37:44.213Z,41.94
2018-04-17T09:38:44.188Z,41.90
2018-04-17T09:39:44.162Z,41.84
2018-04-17T09:40:44.137Z,41.70
2018-04-17T09:41:44.112Z,41.62
2018-04-17T09:42:44.087Z,41.26
2018-04-17T09:43:44.061Z,40.55
2018-04-17T09:44:44.035Z,39.62
2018-04-17T09:45:44.010Z,38.52
2018-04-17T09:46:43.982Z,37.27
2018-04-17T09:47:43.960Z,36.25
2018-04-17T09:48:43.929Z,35.16
2018-04-17T09:49:43.902Z,34.06
2018-04-17T09:50:43.874Z,33.22
2018-04-17T09:51:43.846Z,32.60
2018-04-17T09:52:43.823Z,31.86
2018-04-17T09:53:43.787Z,31.28
2018-04-17T09:54:43.757Z,30.80
2018-04-17T09:55:43.726Z,30.26
2018-04-17T09:56:43.697Z,29.90
2018-04-17T09:57:43.666Z,29.45
2018-04-17T09:58:43.634Z,29.09
2018-04-17T09:59:43.600Z,28.80
2018-04-17T10:00:43.570Z,28.46
2018-04-17T10:01:43.538Z,28.31
2018-04-17T10:02:43.506Z,27.97
2018-04-17T10:03:43.473Z,27.72
2018-04-17T10:04:43.439Z,27.57
2018-04-17T10:05:43.407Z,27.41
2018-04-17T10:06:43.374Z,27.22
2018-04-17T10:07:43.346Z,27.03
2018-04-17T10:08:43.318Z,26.88
2018-04-17T10:09:43.272Z,26.82
2018-04-17T10:10:43.240Z,26.72
2018-04-17T10:11:43.205Z,26.69
2018-04-17T10:12:43.171Z,26.60
2018-04-17T10:13:43.136Z,26.52
2018-04-17T10:14:43.104Z,26.48
2018-04-17T10:15:43.067Z,26.32
2018-04-17T10:16:43.034Z,26.36
2018-04-17T10:17:42.999Z,26.25
2018-04-17T10:18:42.968Z,26.18
2018-04-17T10:19:42.930Z,26.21
2018-04-17T10:20:42.895Z,26.13
2018-04-17T10:21:42.863Z,25.99
2018-04-17T10:22:42.825Z,25.99
2018-04-17T10:23:42.789Z,25.85
2018-04-17T10:24:42.754Z,25.87
2018-04-17T10:25:42.719Z,25.87
2018-04-17T10:26:42.684Z,25.83
2018-04-17T10:27:42.647Z,25.77
2018-04-17T10:28:42.611Z,25.61
2018-04-17T10:29:42.578Z,25.57
2018-04-17T10:30:42.541Z,25.57
2018-04-17T10:31:42.505Z,25.47
2018-04-17T10:32:42.472Z,25.46
2018-04-17T10:33:42.433Z,25.33
2018-04-17T10:34:42.397Z,25.33
2018-04-17T10:35:42.361Z,25.10
2018-04-17T10:36:42.328Z,25.09
2018-04-17T10:37:42.289Z,24.98
2018-04-17T10:38:42.253Z,24.95
2018-04-17T10:39:42.240Z,24.99
2018-04-17T10:40:42.180Z,24.87
2018-04-17T10:41:42.144Z,24.87
2018-04-17T10:42:42.116Z,24.91
2018-04-17T10:43:42.070Z,24.83
2018-04-17T10:44:42.034Z,24.93
2018-04-17T10:45:41.997Z,24.81
2018-04-17T10:46:41.961Z,24.77
2018-04-17T10:47:41.923Z,24.80
2018-04-17T10:48:41.887Z,24.71
2018-04-17T10:49:41.850Z,24.67
2018-04-17T10:50:41.814Z,24.55
2018-04-17T10:51:41.777Z,24.61
2018-04-17T10:52:41.741Z,24.55
2018-04-17T10:53:41.703Z,24.53
2018-04-17T10:54:41.666Z,24.47
2018-04-17T10:55:41.628Z,24.47
2018-04-17T10:56:41.591Z,24.49
2018-04-17T10:57:41.554Z,24.39
2018-04-17T10:58:41.520Z,24.46
2018-04-17T10:59:41.500Z,24.43
2018-04-17T11:00:41.445Z,24.35
2018-04-17T11:01:41.406Z,24.46
2018-04-17T11:02:41.369Z,24.43
2018-04-17T11:03:41.331Z,24.39
2018-04-17T11:04:41.294Z,24.40
2018-04-17T11:05:41.256Z,24.43
2018-04-17T11:06:41.219Z,24.40
2018-04-17T11:07:41.183Z,24.28
2018-04-17T11:08:41.147Z,24.34
2018-04-17T11:09:41.111Z,24.28
2018-04-17T11:10:41.073Z,24.39
2018-04-17T11:11:41.036Z,24.46
2018-04-17T11:12:40.997Z,24.42
2018-04-17T11:13:40.958Z,24.42
2018-04-17T11:14:40.920Z,24.50
2018-04-17T11:15:40.883Z,24.45
2018-04-17T11:16:40.846Z,24.50
2018-04-17T11:17:40.807Z,24.43
2018-04-17T11:18:40.770Z,24.35
2018-04-17T11:19:40.735Z,24.18
2018-04-17T11:20:40.696Z,24.18
2018-04-17T11:21:40.661Z,24.13
2018-04-17T11:22:40.621Z,24.10
2018-04-17T11:23:40.584Z,24.05
2018-04-17T11:24:40.545Z,24.00
2018-04-17T11:25:40.508Z,23.98
2018-04-17T11:26:40.470Z,23.97
2018-04-17T11:27:40.432Z,23.85
2018-04-17T11:28:40.394Z,23.78
2018-04-17T11:29:40.356Z,23.78
2018-04-17T11:30:40.318Z,23.75
2018-04-17T11:31:40.279Z,23.68
2018-04-17T11:32:40.241Z,23.68
2018-04-17T11:33:40.206Z,23.68
2018-04-17T11:34:40.206Z,23.72
2018-04-17T11:35:40.127Z,23.76
2018-04-17T11:36:40.089Z,23.79
2018-04-17T11:37:40.051Z,23.75
2018-04-17T11:38:40.013Z,23.76
2018-04-17T11:39:39.974Z,23.73
2018-04-17T11:40:39.936Z,23.78
2018-04-17T11:41:39.898Z,23.69
2018-04-17T11:42:39.860Z,23.69
2018-04-17T11:43:39.822Z,23.73
2018-04-17T11:44:39.783Z,23.75
2018-04-17T11:45:39.747Z,23.80
2018-04-17T11:46:39.706Z,23.83
2018-04-17T11:47:39.668Z,23.73
2018-04-17T11:48:39.664Z,23.68
2018-04-17T11:49:39.591Z,23.51
2018-04-17T11:50:39.559Z,23.35
2018-04-17T11:51:39.516Z,23.42
2018-04-17T11:52:39.476Z,23.38
2018-04-17T11:53:39.438Z,23.46
2018-04-17T11:54:39.400Z,23.42
2018-04-17T11:55:39.359Z,23.47
2018-04-17T11:56:39.320Z,23.36
2018-04-17T11:57:39.282Z,23.47
2018-04-17T11:58:39.245Z,23.43
2018-04-17T11:59:39.206Z,23.43
2018-04-17T12:00:39.169Z,23.51
2018-04-17T12:01:39.128Z,23.61
2018-04-17T12:02:39.090Z,23.68
2018-04-17T12:03:39.051Z,23.72
2018-04-17T12:04:39.014Z,23.90
2018-04-17T12:05:38.977Z,24.06
2018-04-17T12:06:38.936Z,24.13
2018-04-17T12:07:38.895Z,24.12
2018-04-17T12:08:38.859Z,24.42
2018-04-17T12:09:38.821Z,24.40
2018-04-17T12:10:38.782Z,24.50
2018-04-17T12:11:38.743Z,24.61
2018-04-17T12:12:38.705Z,24.69
2018-04-17T12:13:38.667Z,24.69
2018-04-17T12:14:38.635Z,24.73
2018-04-17T12:15:38.590Z,24.77
2018-04-17T12:16:38.552Z,24.83
2018-04-17T12:17:38.514Z,24.80
2018-04-17T12:18:38.476Z,24.80
2018-04-17T12:19:38.437Z,24.68
2018-04-17T12:20:38.399Z,24.55
2018-04-17T12:21:38.361Z,24.52
2018-04-17T12:22:38.324Z,24.43
2018-04-17T12:23:38.284Z,24.42
2018-04-17T12:24:38.246Z,24.45
2018-04-17T12:25:38.208Z,24.37
2018-04-17T12:26:38.175Z,24.39
2018-04-17T12:27:38.133Z,24.34
2018-04-17T12:28:38.092Z,24.25
2018-04-17T12:29:38.055Z,24.24
2018-04-17T12:30:38.017Z,24.15
2018-04-17T12:31:37.977Z,24.27
2018-04-17T12:32:37.939Z,24.22
2018-04-17T12:33:37.901Z,24.27
2018-04-17T12:34:37.905Z,24.28
2018-04-17T12:35:37.824Z,24.13
2018-04-17T12:36:37.785Z,24.03
2018-04-17T12:37:37.747Z,24.05
2018-04-17T12:38:37.709Z,23.95
2018-04-17T12:39:37.669Z,23.79
2018-04-17T12:40:37.631Z,23.72
2018-04-17T12:41:37.593Z,23.55
2018-04-17T12:42:37.553Z,23.43
2018-04-17T12:43:37.514Z,23.28
2018-04-17T12:44:37.476Z,23.15
2018-04-17T12:45:37.437Z,23.02
2018-04-17T12:46:37.398Z,23.04
2018-04-17T12:47:37.358Z,22.86
2018-04-17T12:48:37.321Z,22.85
2018-04-17T12:49:37.380Z,22.73
2018-04-17T12:50:37.242Z,22.52
2018-04-17T12:51:37.202Z,22.49
2018-04-17T12:52:37.163Z,22.39
2018-04-17T12:53:37.123Z,22.33
2018-04-17T12:54:37.086Z,22.31
2018-04-17T12:55:37.048Z,22.17
2018-04-17T12:56:37.004Z,22.15
2018-04-17T12:57:36.966Z,22.22
2018-04-17T12:58:36.926Z,22.18
2018-04-17T12:59:36.886Z,22.22
2018-04-17T13:00:36.850Z,22.12
2018-04-17T13:01:36.810Z,22.09
2018-04-17T13:02:36.767Z,22.03
2018-04-17T13:03:36.727Z,21.96
2018-04-17T13:04:36.688Z,21.86
2018-04-17T13:05:36.648Z,21.91
2018-04-17T13:06:36.609Z,21.80
2018-04-17T13:07:36.568Z,21.75
2018-04-17T13:08:36.528Z,21.64
2018-04-17T13:09:36.489Z,21.44
2018-04-17T13:10:36.449Z,21.43
2018-04-17T13:11:36.408Z,21.44
2018-04-17T13:12:36.368Z,21.46
2018-04-17T13:13:36.328Z,21.43
2018-04-17T13:14:36.287Z,21.42
2018-04-17T13:15:36.248Z,21.52
2018-04-17T13:16:36.208Z,21.65
2018-04-17T13:17:36.175Z,21.82
2018-04-17T13:18:36.129Z,21.88
2018-04-17T13:19:36.089Z,21.91
2018-04-17T13:20:36.053Z,21.96
2018-04-17T13:21:36.015Z,21.94
2018-04-17T13:22:35.971Z,21.82
2018-04-17T13:23:35.929Z,21.86
2018-04-17T13:24:35.896Z,21.82
2018-04-17T13:25:35.850Z,21.80
2018-04-17T13:26:35.810Z,21.86
2018-04-17T13:27:35.769Z,21.69
2018-04-17T13:28:35.730Z,21.72
2018-04-17T13:29:35.691Z,21.65
2018-04-17T13:30:35.650Z,21.56
2018-04-17T13:31:35.609Z,21.52
2018-04-17T13:32:35.569Z,21.53
2018-04-17T13:33:35.530Z,21.46
2018-04-17T13:34:35.488Z,21.31
2018-04-17T13:35:35.448Z,21.35
2018-04-17T13:36:35.421Z,21.29
2018-04-17T13:37:35.369Z,21.32
2018-04-17T13:38:35.331Z,21.25
2018-04-17T13:39:35.289Z,21.42
2018-04-17T13:40:35.248Z,21.35
2018-04-17T13:41:35.209Z,21.38
2018-04-17T13:42:35.169Z,21.34
2018-04-17T13:43:35.129Z,21.35
2018-04-17T13:44:35.089Z,21.27
2018-04-17T13:45:35.049Z,21.24
2018-04-17T13:46:35.009Z,21.28
2018-04-17T13:47:34.967Z,21.28
2018-04-17T13:48:34.928Z,21.29
2018-04-17T13:49:34.890Z,21.19
2018-04-17T13:50:34.850Z,21.32
2018-04-17T13:51:34.807Z,21.29
2018-04-17T13:52:34.767Z,21.38
2018-04-17T13:53:34.726Z,21.42
2018-04-17T13:54:34.688Z,21.42
2018-04-17T13:55:34.645Z,21.31
2018-04-17T13:56:34.606Z,21.32
2018-04-17T13:57:34.566Z,21.24
2018-04-17T13:58:34.527Z,21.29
2018-04-17T13:59:34.485Z,21.10
2018-04-17T14:00:34.445Z,21.17
2018-04-17T14:01:34.405Z,21.21
2018-04-17T14:02:34.366Z,21.04
2018-04-17T14:03:34.324Z,21.10
2018-04-17T14:04:34.284Z,21.10
2018-04-17T14:05:34.244Z,21.16
2018-04-17T14:06:34.204Z,21.14
2018-04-17T14:07:34.163Z,21.21
2018-04-17T14:08:34.123Z,21.16
2018-04-17T14:09:34.083Z,21.07
2018-04-17T14:10:34.043Z,21.17
2018-04-17T14:11:34.002Z,21.19
2018-04-17T14:12:33.962Z,21.31
2018-04-17T14:13:33.922Z,21.24
2018-04-17T14:14:33.882Z,21.27
2018-04-17T14:15:33.841Z,21.24
2018-04-17T14:16:33.805Z,21.17
2018-04-17T14:17:33.761Z,21.28
2018-04-17T14:18:33.721Z,21.29
2018-04-17T14:19:33.680Z,21.22
2018-04-17T14:20:33.641Z,21.34
2018-04-17T14:21:33.601Z,21.38
2018-04-17T14:22:33.561Z,21.35
2018-04-17T14:23:33.520Z,21.42
2018-04-17T14:24:33.480Z,21.46
2018-04-17T14:25:33.452Z,21.53
2018-04-17T14:26:33.400Z,21.52
2018-04-17T14:27:33.360Z,21.54
2018-04-17T14:28:33.321Z,21.62
2018-04-17T14:29:33.279Z,21.68
2018-04-17T14:30:33.241Z,21.75
2018-04-17T14:31:33.200Z,21.80
2018-04-17T14:32:33.160Z,21.83
2018-04-17T14:33:33.126Z,21.92
2018-04-17T14:34:33.081Z,21.84
2018-04-17T14:35:33.040Z,21.88
2018-04-17T14:36:33.002Z,21.91
2018-04-17T14:37:32.961Z,22.00
2018-04-17T14:38:32.921Z,21.91
2018-04-17T14:39:32.880Z,21.86
2018-04-17T14:40:32.844Z,21.80
2018-04-17T14:41:32.801Z,21.82
2018-04-17T14:42:32.762Z,21.68
2018-04-17T14:43:32.720Z,21.69
2018-04-17T14:44:32.680Z,21.64
2018-04-17T14:45:32.645Z,21.61
2018-04-17T14:46:32.602Z,21.59
2018-04-17T14:47:32.562Z,21.59
2018-04-17T14:48:32.520Z,21.52
2018-04-17T14:49:32.489Z,21.49
2018-04-17T14:50:32.442Z,21.58
2018-04-17T14:51:32.400Z,21.38
2018-04-17T14:52:32.361Z,21.42
2018-04-17T14:53:32.321Z,21.53
2018-04-17T14:54:32.280Z,21.42
2018-04-17T14:55:32.240Z,21.54
2018-04-17T14:56:32.200Z,21.50
2018-04-17T14:57:32.160Z,21.43
2018-04-17T14:58:32.120Z,21.40
2018-04-17T14:59:32.080Z,21.42
2018-04-17T15:00:32.041Z,21.42
2018-04-17T15:01:31.999Z,21.46
2018-04-17T15:02:31.960Z,21.53
2018-04-17T15:03:31.922Z,21.61
2018-04-17T15:04:31.879Z,21.67
2018-04-17T15:05:31.839Z,21.74
2018-04-17T15:06:31.799Z,21.74
2018-04-17T15:07:31.759Z,21.77
2018-04-17T15:08:31.718Z,21.80
2018-04-17T15:09:31.678Z,21.88
2018-04-17T15:10:31.638Z,21.86
2018-04-17T15:11:31.598Z,21.91
2018-04-17T15:12:31.561Z,21.83
2018-04-17T15:13:31.518Z,21.98
2018-04-17T15:14:31.479Z,21.83
2018-04-17T15:15:31.437Z,21.90
2018-04-17T15:16:31.397Z,21.86
2018-04-17T15:17:31.357Z,21.79
2018-04-17T15:18:31.320Z,21.68
2018-04-17T15:19:31.277Z,21.67
2018-04-17T15:20:31.241Z,21.52
2018-04-17T15:21:31.196Z,21.42
2018-04-17T15:22:31.157Z,21.43
2018-04-17T15:23:31.115Z,21.29
2018-04-17T15:24:31.075Z,21.21
2018-04-17T15:25:31.037Z,21.24
2018-04-17T15:26:30.996Z,21.21
2018-04-17T15:27:30.955Z,21.07
2018-04-17T15:28:30.915Z,21.14
2018-04-17T15:29:30.875Z,21.07
2018-04-17T15:30:30.834Z,21.03
2018-04-17T15:31:30.795Z,20.82
2018-04-17T15:32:30.753Z,20.79
2018-04-17T15:33:30.714Z,20.76
2018-04-17T15:34:30.673Z,20.74
2018-04-17T15:35:30.632Z,20.58
2018-04-17T15:36:30.592Z,20.57
2018-04-17T15:37:30.552Z,20.57
2018-04-17T15:38:30.511Z,20.52
2018-04-17T15:39:30.471Z,20.55
2018-04-17T15:40:30.430Z,20.50
2018-04-17T15:41:30.390Z,20.43
2018-04-17T15:42:30.351Z,20.43
2018-04-17T15:43:30.309Z,20.42
2018-04-17T15:44:30.270Z,20.43
2018-04-17T15:45:30.229Z,20.39
2018-04-17T15:46:30.187Z,20.33
2018-04-17T15:47:30.147Z,20.26
2018-04-17T15:48:30.105Z,20.33
2018-04-17T15:49:30.065Z,20.33
2018-04-17T15:50:30.025Z,20.24
2018-04-17T15:51:29.985Z,20.17
2018-04-17T15:52:29.943Z,20.21
2018-04-17T15:53:29.903Z,20.16
2018-04-17T15:54:29.861Z,20.18
2018-04-17T15:55:29.820Z,20.11
2018-04-17T15:56:29.780Z,20.10
2018-04-17T15:57:29.739Z,19.99
2018-04-17T15:58:29.698Z,19.95
2018-04-17T15:59:29.656Z,20.02
2018-04-17T16:00:29.616Z,20.02
2018-04-17T16:01:29.575Z,19.99
2018-04-17T16:02:29.535Z,20.03
2018-04-17T16:03:29.540Z,19.96
2018-04-17T16:04:29.452Z,19.96
2018-04-17T16:05:29.412Z,19.98
2018-04-17T16:06:29.371Z,19.95
2018-04-17T16:07:29.332Z,19.99
2018-04-17T16:08:29.289Z,20.01
2018-04-17T16:09:29.294Z,19.98
2018-04-17T16:10:29.207Z,19.94
2018-04-17T16:11:29.166Z,19.99
2018-04-17T16:12:29.125Z,20.01
2018-04-17T16:13:29.084Z,19.99
2018-04-17T16:14:29.043Z,19.94
2018-04-17T16:15:29.001Z,19.92
2018-04-17T16:16:28.961Z,20.01
2018-04-17T16:17:28.920Z,19.94
2018-04-17T16:18:28.879Z,19.95
2018-04-17T16:19:28.837Z,19.86
2018-04-17T16:20:28.800Z,19.98
2018-04-17T16:21:28.768Z,20.01
2018-04-17T16:22:28.728Z,19.96
2018-04-17T16:23:28.673Z,19.99
2018-04-17T16:24:28.632Z,19.96
2018-04-17T16:25:28.591Z,19.92
2018-04-17T16:26:28.551Z,19.99
2018-04-17T16:27:28.559Z,19.94
2018-04-17T16:28:28.468Z,19.94
2018-04-17T16:29:28.428Z,19.92
2018-04-17T16:30:28.389Z,19.92
2018-04-17T16:31:28.344Z,19.84
2018-04-17T16:32:28.304Z,19.78
2018-04-17T16:33:28.263Z,19.77
2018-04-17T16:34:28.222Z,19.69
2018-04-17T16:35:28.180Z,19.78
2018-04-17T16:36:28.139Z,19.69
2018-04-17T16:37:28.098Z,19.61
2018-04-17T16:38:28.057Z,19.55
2018-04-17T16:39:28.022Z,19.56
2018-04-17T16:40:27.975Z,19.51
2018-04-17T16:41:27.934Z,19.50
2018-04-17T16:42:27.896Z,19.51
2018-04-17T16:43:27.854Z,19.51
2018-04-17T16:44:27.809Z,19.54
2018-04-17T16:45:27.768Z,19.47
2018-04-17T16:46:27.728Z,19.46
2018-04-17T16:47:27.692Z,19.44
2018-04-17T16:48:27.645Z,19.44
2018-04-17T16:49:27.604Z,19.41
2018-04-17T16:50:27.563Z,19.41
2018-04-17T16:51:27.564Z,19.28
2018-04-17T16:52:27.480Z,19.23
2018-04-17T16:53:27.444Z,19.32
2018-04-17T16:54:27.398Z,19.19
2018-04-17T16:55:27.355Z,19.14
2018-04-17T16:56:27.315Z,19.19
2018-04-17T16:57:27.323Z,19.22
2018-04-17T16:58:27.232Z,19.23
2018-04-17T16:59:27.291Z,19.21
2018-04-17T17:00:27.149Z,19.19
2018-04-17T17:01:27.112Z,19.06
2018-04-17T17:02:27.069Z,19.04
2018-04-17T17:03:27.025Z,18.99
2018-04-17T17:04:26.984Z,18.91
2018-04-17T17:05:26.957Z,18.95
2018-04-17T17:06:26.901Z,18.91
2018-04-17T17:07:26.865Z,18.99
2018-04-17T17:08:26.818Z,18.98
2018-04-17T17:09:26.777Z,18.85
2018-04-17T17:10:26.736Z,18.87
2018-04-17T17:11:26.694Z,18.88
2018-04-17T17:12:26.653Z,18.87
2018-04-17T17:13:26.611Z,18.75
2018-04-17T17:14:26.574Z,18.73
2018-04-17T17:15:26.528Z,18.72
2018-04-17T17:16:26.486Z,18.66
2018-04-17T17:17:26.452Z,18.60
2018-04-17T17:18:26.404Z,18.65
2018-04-17T17:19:26.362Z,18.58
2018-04-17T17:20:26.350Z,18.52
2018-04-17T17:21:26.280Z,18.52
2018-04-17T17:22:26.238Z,18.52
2018-04-17T17:23:26.196Z,18.51
2018-04-17T17:24:26.154Z,18.48
2018-04-17T17:25:26.113Z,18.54
2018-04-17T17:26:26.074Z,18.42
2018-04-17T17:27:26.031Z,18.50
2018-04-17T17:28:25.988Z,18.41
2018-04-17T17:29:25.947Z,18.42
2018-04-17T17:30:25.906Z,18.33
2018-04-17T17:31:25.863Z,18.41
2018-04-17T17:32:25.832Z,18.29
2018-04-17T17:33:25.781Z,18.27
2018-04-17T17:34:25.740Z,18.27
2018-04-17T17:35:25.697Z,18.33
2018-04-17T17:36:25.656Z,18.25
2018-04-17T17:37:25.614Z,18.20
2018-04-17T17:38:25.573Z,18.27
2018-04-17T17:39:25.594Z,18.25
2018-04-17T17:40:25.490Z,18.20
2018-04-17T17:41:25.447Z,18.18
2018-04-17T17:42:25.406Z,18.20
2018-04-17T17:43:25.364Z,18.15
2018-04-17T17:44:25.326Z,18.12
2018-04-17T17:45:25.280Z,18.14
2018-04-17T17:46:25.243Z,18.05
2018-04-17T17:47:25.196Z,18.03
2018-04-17T17:48:25.159Z,18.03
2018-04-17T17:49:25.116Z,18.02
2018-04-17T17:50:25.072Z,17.97
2018-04-17T17:51:25.030Z,18.00
2018-04-17T17:52:24.987Z,17.89
2018-04-17T17:53:24.948Z,17.93
2018-04-17T17:54:24.908Z,17.89
2018-04-17T17:55:24.862Z,17.81
2018-04-17T17:56:24.824Z,17.86
2018-04-17T17:57:24.783Z,17.86
2018-04-17T17:58:24.737Z,17.84
2018-04-17T17:59:24.695Z,17.79
2018-04-17T18:00:24.658Z,17.77
2018-04-17T18:01:24.612Z,17.72
2018-04-17T18:02:24.570Z,17.71
2018-04-17T18:03:24.527Z,17.68
2018-04-17T18:04:24.485Z,17.70
2018-04-17T18:05:24.444Z,17.62
2018-04-17T18:06:24.403Z,17.55
2018-04-17T18:07:24.394Z,17.52
2018-04-17T18:08:24.318Z,17.52
2018-04-17T18:09:24.276Z,17.49
2018-04-17T18:10:24.234Z,17.44
2018-04-17T18:11:24.192Z,17.44
2018-04-17T18:12:24.161Z,17.46
2018-04-17T18:13:24.108Z,17.41
2018-04-17T18:14:24.066Z,17.37
2018-04-17T18:15:24.023Z,17.36
2018-04-17T18:16:23.982Z,17.38
2018-04-17T18:17:23.940Z,17.33
2018-04-17T18:18:23.899Z,17.30
2018-04-17T18:19:23.856Z,17.30
2018-04-17T18:20:23.819Z,17.25
2018-04-17T18:21:23.774Z,17.23
2018-04-17T18:22:23.729Z,17.23
2018-04-17T18:23:23.686Z,17.16
2018-04-17T18:24:23.644Z,17.18
2018-04-17T18:25:23.602Z,17.14
2018-04-17T18:26:23.561Z,17.15
2018-04-17T18:27:23.517Z,17.15
2018-04-17T18:28:23.475Z,17.16
2018-04-17T18:29:23.434Z,17.12
2018-04-17T18:30:23.392Z,17.12
2018-04-17T18:31:23.349Z,17.06
2018-04-17T18:32:23.307Z,16.97
2018-04-17T18:33:23.265Z,17.03
2018-04-17T18:34:23.223Z,16.97
2018-04-17T18:35:23.180Z,17.03
2018-04-17T18:36:23.138Z,17.04
2018-04-17T18:37:23.096Z,17.01
2018-04-17T18:38:23.054Z,16.94
2018-04-17T18:39:23.011Z,17.01
2018-04-17T18:40:22.973Z,16.96
2018-04-17T18:41:22.927Z,16.94
2018-04-17T18:42:22.885Z,16.91
2018-04-17T18:43:22.841Z,16.93
2018-04-17T18:44:22.800Z,16.86
2018-04-17T18:45:22.758Z,16.89
2018-04-17T18:46:22.716Z,16.94
2018-04-17T18:47:22.673Z,16.83
2018-04-17T18:48:22.631Z,16.79
2018-04-17T18:49:22.590Z,16.75
2018-04-17T18:50:22.547Z,16.82
2018-04-17T18:51:22.503Z,16.76
2018-04-17T18:52:22.461Z,16.78
2018-04-17T18:53:22.419Z,16.68
2018-04-17T18:54:22.377Z,16.78
2018-04-17T18:55:22.333Z,16.66
2018-04-17T18:56:22.291Z,16.68
2018-04-17T18:57:22.250Z,16.67
2018-04-17T18:58:22.207Z,16.67
2018-04-17T18:59:22.164Z,16.64
2018-04-17T19:00:22.122Z,16.67
2018-04-17T19:01:22.079Z,16.64
2018-04-17T19:02:22.037Z,16.57
2018-04-17T19:03:21.994Z,16.61
2018-04-17T19:04:21.953Z,16.56
2018-04-17T19:05:21.912Z,16.60
2018-04-17T19:06:21.870Z,16.57
2018-04-17T19:07:21.824Z,16.57
2018-04-17T19:08:21.782Z,16.52
2018-04-17T19:09:21.739Z,16.52
2018-04-17T19:10:21.701Z,16.49
2018-04-17T19:11:21.653Z,16.45
2018-04-17T19:12:21.621Z,16.45
2018-04-17T19:13:21.569Z,16.43
2018-04-17T19:14:21.531Z,16.42
2018-04-17T19:15:21.484Z,16.41
2018-04-17T19:16:21.441Z,16.43
2018-04-17T19:17:21.399Z,16.42
2018-04-17T19:18:21.357Z,16.42
2018-04-17T19:19:21.313Z,16.33
2018-04-17T19:20:21.271Z,16.30
2018-04-17T19:21:21.295Z,16.33
2018-04-17T19:22:21.192Z,16.28
2018-04-17T19:23:21.143Z,16.25
2018-04-17T19:24:21.100Z,16.25
2018-04-17T19:25:21.058Z,16.31
2018-04-17T19:26:21.016Z,16.20
2018-04-17T19:27:20.976Z,16.27
2018-04-17T19:28:20.932Z,16.24
2018-04-17T19:29:20.888Z,16.25
2018-04-17T19:30:20.845Z,16.25
2018-04-17T19:31:20.807Z,16.15
2018-04-17T19:32:20.760Z,16.28
2018-04-17T19:33:20.717Z,16.24
2018-04-17T19:34:20.675Z,16.27
2018-04-17T19:35:20.636Z,16.25
2018-04-17T19:36:20.590Z,16.27
2018-04-17T19:37:20.547Z,16.17
2018-04-17T19:38:20.504Z,16.20
2018-04-17T19:39:20.461Z,16.23
2018-04-17T19:40:20.475Z,16.20
2018-04-17T19:41:20.386Z,16.21
2018-04-17T19:42:20.333Z,16.11
2018-04-17T19:43:20.290Z,16.14
2018-04-17T19:44:20.247Z,16.14
2018-04-17T19:45:20.206Z,16.12
2018-04-17T19:46:20.165Z,16.08
2018-04-17T19:47:20.120Z,16.11
2018-04-17T19:48:20.084Z,16.08
2018-04-17T19:49:20.035Z,16.07
2018-04-17T19:50:19.992Z,16.04
2018-04-17T19:51:19.956Z,16.07
2018-04-17T19:52:19.905Z,16.08
2018-04-17T19:53:19.863Z,16.07
2018-04-17T19:54:19.821Z,16.00
2018-04-17T19:55:19.777Z,16.05
2018-04-17T19:56:19.736Z,16.02
2018-04-17T19:57:19.698Z,16.05
2018-04-17T19:58:19.649Z,16.04
2018-04-17T19:59:19.605Z,16.01
2018-04-17T20:00:19.564Z,16.04
2018-04-17T20:01:19.524Z,15.92
2018-04-17T20:02:19.478Z,15.93
2018-04-17T20:03:19.434Z,15.90
2018-04-17T20:04:19.392Z,15.92
2018-04-17T20:05:19.349Z,15.92
2018-04-17T20:06:19.307Z,15.89
2018-04-17T20:07:19.264Z,15.90
2018-04-17T20:08:19.223Z,15.89
2018-04-17T20:09:19.187Z,15.87
2018-04-17T20:10:19.136Z,15.83
2018-04-17T20:11:19.094Z,15.86
2018-04-17T20:12:19.050Z,15.86
2018-04-17T20:13:19.007Z,15.84
2018-04-17T20:14:18.964Z,15.76
2018-04-17T20:15:18.921Z,15.84
2018-04-17T20:16:18.878Z,15.75
2018-04-17T20:17:18.839Z,15.75
2018-04-17T20:18:18.792Z,15.75
2018-04-17T20:19:18.750Z,15.74
2018-04-17T20:20:18.706Z,15.69
2018-04-17T20:21:18.663Z,15.74
2018-04-17T20:22:18.622Z,15.72
2018-04-17T20:23:18.577Z,15.62
2018-04-17T20:24:18.534Z,15.68
2018-04-17T20:25:18.494Z,15.62
2018-04-17T20:26:18.449Z,15.69
2018-04-17T20:27:18.407Z,15.69
2018-04-17T20:28:18.362Z,15.71
2018-04-17T20:29:18.320Z,15.60
2018-04-17T20:30:18.277Z,15.68
2018-04-17T20:31:18.232Z,15.68
2018-04-17T20:32:18.191Z,15.62
2018-04-17T20:33:18.147Z,15.59
2018-04-17T20:34:18.104Z,15.60
2018-04-17T20:35:18.061Z,15.62
2018-04-17T20:36:18.018Z,15.65
2018-04-17T20:37:17.976Z,15.60
2018-04-17T20:38:17.933Z,15.59
2018-04-17T20:39:17.891Z,15.56
2018-04-17T20:40:17.848Z,15.56
2018-04-17T20:41:17.807Z,15.53
2018-04-17T20:42:17.804Z,15.54
2018-04-17T20:43:17.716Z,15.50
2018-04-17T20:44:17.673Z,15.51
2018-04-17T20:45:17.631Z,15.53
2018-04-17T20:46:17.588Z,15.51
2018-04-17T20:47:17.544Z,15.46
2018-04-17T20:48:17.501Z,15.44
2018-04-17T20:49:17.458Z,15.46
2018-04-17T20:50:17.415Z,15.47
2018-04-17T20:51:17.372Z,15.50
2018-04-17T20:52:17.329Z,15.44
2018-04-17T20:53:17.286Z,15.38
2018-04-17T20:54:17.243Z,15.43
2018-04-17T20:55:17.198Z,15.35
2018-04-17T20:56:17.167Z,15.29
2018-04-17T20:57:17.114Z,15.32
2018-04-17T20:58:17.070Z,15.39
2018-04-17T20:59:17.026Z,15.35
2018-04-17T21:00:16.983Z,15.36
2018-04-17T21:01:16.940Z,15.35
2018-04-17T21:02:16.901Z,15.35
2018-04-17T21:03:16.854Z,15.34
2018-04-17T21:04:16.810Z,15.28
2018-04-17T21:05:16.768Z,15.29
2018-04-17T21:06:16.730Z,15.29
2018-04-17T21:07:16.680Z,15.34
2018-04-17T21:08:16.638Z,15.35
2018-04-17T21:09:16.595Z,15.21
2018-04-17T21:10:16.552Z,15.32
2018-04-17T21:11:16.514Z,15.23
2018-04-17T21:12:16.464Z,15.31
2018-04-17T21:13:16.421Z,15.25
2018-04-17T21:14:16.379Z,15.23